Barr, South Carolina
Current Conditions -  °F | °C
As of 2:56 AM on Thursday 23 Oct 2014 (Local Time) from KCAE Reporting Station
Clear Clear  
Wind Chill: 44°   Ceiling: Unl
Heat Index: 46°   Visibility: 10mi
Dew Point: 40°   Wind: 5mph
Humidity: 79%   Direction: 230°SW
Pressure: 30.08"   Gusts: NA
Location:  33.9903°N, 81.2681°W
Report Text: KCAE 230656Z 23004KT 10SM CLR 08/04 A3008 RMK AO2 SLP186 T00780044
Loading
Personal Weather Stations






























Interactive Weather Map New forecast layout! Learn more

10-Day Weather Forecast

Advertisements
Track Severe Weather on mobile